Time;durP1;ratioP1;P1;durP2;ratioP2;P2;SDS_P1;SDS_P2;PMS_P1;PMS_P2;Temp;Humidity;BMP_temperature;BMP_pressure;BME280_temperature;BME280_humidity;BME280_pressure;Samples;Min_cycle;Max_cycle;Signal;HPM_P1;HPM_P2
2022/09/08 00:01:35;;;;;;;8.27;4.32;;;;;;;20.08;90.96;100425.44;5051504;28;20444;-65
2022/09/08 00:04:03;;;;;;;7.00;4.28;;;;;;;20.10;90.73;100422.25;5073963;28;20033;-65
2022/09/08 00:06:29;;;;;;;7.95;4.15;;;;;;;20.05;90.68;100425.50;5070396;28;20044;-64
2022/09/08 00:08:55;;;;;;;8.80;3.85;;;;;;;20.08;90.47;100427.38;5068546;28;20029;-64
2022/09/08 00:11:28;;;;;;;7.13;4.70;;;;;;;20.20;89.74;100437.69;5068518;28;20439;-65
2022/09/08 00:13:56;;;;;;;7.32;4.07;;;;;;;20.04;90.04;100426.69;5047738;28;20068;-65
2022/09/08 00:16:22;;;;;;;8.23;4.70;;;;;;;19.87;91.00;100422.38;5069456;28;20111;-64
2022/09/08 00:18:52;;;;;;;5.90;4.03;;;;;;;19.79;91.43;100422.53;5065695;28;20112;-65
2022/09/08 00:21:23;;;;;;;8.48;4.70;;;;;;;19.74;91.64;100425.00;5082636;28;20039;-64
2022/09/08 00:23:49;;;;;;;8.25;4.70;;;;;;;19.75;91.57;100423.81;5069007;28;20036;-65
2022/09/08 00:26:15;;;;;;;6.80;4.22;;;;;;;19.77;91.37;100418.69;5069816;28;20035;-64
2022/09/08 00:28:40;;;;;;;9.50;4.70;;;;;;;19.69;91.84;100409.88;5051044;28;20544;-64
2022/09/08 00:31:06;;;;;;;7.50;4.20;;;;;;;19.68;92.30;100405.59;5061272;28;20036;-65
2022/09/08 00:33:32;;;;;;;9.93;4.93;;;;;;;19.65;92.59;100411.13;5071746;28;20043;-65
2022/09/08 00:35:58;;;;;;;7.38;4.03;;;;;;;19.61;92.54;100408.47;5067695;28;20493;-64
2022/09/08 00:38:25;;;;;;;8.98;4.72;;;;;;;19.60;93.22;100404.22;5072319;28;20039;-65
2022/09/08 00:40:52;;;;;;;8.45;4.78;;;;;;;19.66;93.10;100401.75;5073473;28;20039;-64
2022/09/08 00:43:31;;;;;;;7.80;4.70;;;;;;;19.76;92.35;100392.56;5072876;28;20064;-64
2022/09/08 00:46:03;;;;;;;9.68;4.78;;;;;;;19.78;92.39;100390.91;5071846;28;20044;-63
2022/09/08 00:48:29;;;;;;;;;;;;;;;19.79;92.09;100381.53;5074454;28;20107;-64
2022/09/08 00:50:54;;;;;;;6.45;4.20;;;;;;;19.74;92.48;100378.53;5072107;28;20007;-63
2022/09/08 00:53:20;;;;;;;8.73;5.15;;;;;;;19.63;92.44;100375.25;5076218;28;20532;-64
2022/09/08 00:55:46;;;;;;;8.43;4.32;;;;;;;19.55;92.63;100377.34;5074964;28;20043;-64
2022/09/08 00:58:12;;;;;;;6.65;4.05;;;;;;;19.59;92.96;100378.06;5073769;28;20067;-63
2022/09/08 01:00:40;;;;;;;8.02;4.50;;;;;;;19.61;92.55;100380.38;5055061;28;20040;-64
2022/09/08 01:03:09;;;;;;;7.60;4.25;;;;;;;19.61;92.75;100372.94;5075709;28;20442;-64
2022/09/08 01:05:52;;;;;;;8.60;4.50;;;;;;;19.77;92.38;100375.72;5078414;28;20441;-64
2022/09/08 01:14:45;;;;;;;9.48;4.57;;;;;;;19.66;91.33;100388.09;5068956;28;20042;-64
2022/09/08 01:17:16;;;;;;;10.73;5.03;;;;;;;19.44;91.92;100385.00;5059028;28;20037;-64
2022/09/08 01:19:42;;;;;;;10.00;5.00;;;;;;;19.43;92.52;100382.72;5069359;28;20033;-64
2022/09/08 01:22:24;;;;;;;8.82;4.30;;;;;;;19.44;92.01;100371.34;5053889;28;20498;-63
2022/09/08 01:24:53;;;;;;;10.38;4.50;;;;;;;19.41;92.07;100369.47;5049543;28;20455;-63
2022/09/08 01:27:23;;;;;;;8.00;4.28;;;;;;;19.35;92.59;100376.63;5073229;28;20395;-64
2022/09/08 01:29:54;;;;;;;8.32;4.75;;;;;;;19.32;92.63;100361.06;5073899;28;20495;-63
2022/09/08 01:32:20;;;;;;;8.80;4.25;;;;;;;19.33;92.41;100365.34;5078520;28;20103;-64
2022/09/08 01:34:46;;;;;;;8.38;4.18;;;;;;;19.32;92.47;100368.44;5071529;28;20099;-64
2022/09/08 01:37:12;;;;;;;7.97;4.50;;;;;;;19.36;92.45;100369.19;5054858;28;20028;-64
2022/09/08 01:39:57;;;;;;;6.90;4.00;;;;;;;19.34;92.54;100377.03;5073683;28;20634;-64
2022/09/08 01:42:43;;;;;;;7.55;4.85;;;;;;;19.32;92.35;100366.53;5067501;28;20556;-64
2022/09/08 01:45:09;;;;;;;9.80;4.45;;;;;;;19.48;91.90;100368.53;5029808;28;20041;-65
2022/09/08 01:47:34;;;;;;;9.15;4.68;;;;;;;19.51;91.56;100354.81;5030552;28;20375;-64
2022/09/08 01:50:00;;;;;;;7.90;4.22;;;;;;;19.53;91.16;100359.88;5034957;28;20045;-64
2022/09/08 01:52:25;;;;;;;7.38;4.25;;;;;;;19.52;91.30;100364.56;5027080;28;20036;-64
2022/09/08 01:54:50;;;;;;;9.02;4.18;;;;;;;19.51;91.11;100357.53;5036127;28;20042;-63
2022/09/08 01:57:16;;;;;;;8.55;4.03;;;;;;;19.53;90.66;100376.25;5029928;28;20062;-64
2022/09/08 01:59:41;;;;;;;6.65;3.97;;;;;;;19.39;91.12;100371.84;5029662;28;20065;-64
2022/09/08 02:02:07;;;;;;;8.82;4.00;;;;;;;19.41;90.99;100374.94;5027763;28;20540;-64
2022/09/08 02:04:32;;;;;;;8.07;4.13;;;;;;;19.37;90.89;100378.94;5039633;28;20099;-64
2022/09/08 02:07:16;;;;;;;7.45;4.28;;;;;;;19.28;91.06;100378.69;5029481;28;20040;-63
2022/09/08 02:09:42;;;;;;;9.80;4.43;;;;;;;19.14;91.55;100368.03;5026188;28;20041;-63
2022/09/08 02:12:08;;;;;;;7.63;4.30;;;;;;;19.08;92.29;100367.75;5027702;28;20343;-64
2022/09/08 02:14:33;;;;;;;8.85;4.43;;;;;;;19.13;91.71;100370.00;5037799;28;20052;-64
2022/09/08 02:17:00;;;;;;;11.40;4.57;;;;;;;19.14;91.75;100355.16;5029155;28;20040;-63
2022/09/08 02:19:44;;;;;;;9.52;4.50;;;;;;;19.13;91.52;100356.34;5025976;28;20524;-63
2022/09/08 02:22:10;;;;;;;7.43;3.75;;;;;;;19.09;91.68;100343.94;5057571;28;20063;-64
2022/09/08 02:24:37;;;;;;;7.47;4.18;;;;;;;19.04;91.90;100339.75;5071511;28;20036;-63
2022/09/08 02:27:02;;;;;;;7.75;4.35;;;;;;;19.15;91.89;100334.84;5070641;28;20024;-64
2022/09/08 02:29:28;;;;;;;7.43;4.05;;;;;;;19.11;91.47;100325.97;5071930;28;20504;-64
2022/09/08 02:31:54;;;;;;;6.20;4.13;;;;;;;19.11;91.37;100319.72;5071475;28;20512;-64
2022/09/08 02:34:19;;;;;;;6.82;4.07;;;;;;;19.16;90.69;100327.44;5065071;28;20506;-64
2022/09/08 02:36:45;;;;;;;8.18;3.90;;;;;;;19.11;91.04;100330.63;5067230;28;20455;-64
2022/09/08 02:39:15;;;;;;;9.02;4.07;;;;;;;19.07;90.95;100314.34;5071911;28;20028;-63
2022/09/08 02:41:41;;;;;;;6.53;3.77;;;;;;;19.05;91.22;100313.22;5070569;28;20035;-63
2022/09/08 02:44:07;;;;;;;7.82;3.75;;;;;;;19.12;90.79;100316.59;5070899;28;20492;-63
2022/09/08 02:46:33;;;;;;;6.72;3.90;;;;;;;19.13;90.34;100318.13;5071662;28;20390;-64
2022/09/08 02:48:58;;;;;;;7.13;4.18;;;;;;;19.17;90.38;100310.63;5063998;28;20039;-63
2022/09/08 02:51:24;;;;;;;9.35;4.40;;;;;;;19.07;90.48;100308.88;5064551;28;20047;-63
2022/09/08 02:53:53;;;;;;;10.57;3.85;;;;;;;19.04;90.63;100317.91;5067293;28;20035;-63
2022/09/08 02:56:19;;;;;;;9.02;4.32;;;;;;;18.87;91.24;100325.25;5070878;28;20032;-63
2022/09/08 02:58:44;;;;;;;5.47;3.80;;;;;;;18.79;90.98;100323.06;5064636;28;20040;-64
2022/09/08 03:01:10;;;;;;;6.93;4.10;;;;;;;18.76;91.26;100326.63;5059935;28;20431;-64
2022/09/08 03:03:35;;;;;;;8.13;3.53;;;;;;;18.71;91.67;100321.66;5035500;28;20054;-64
2022/09/08 03:06:02;;;;;;;7.00;3.67;;;;;;;18.66;91.86;100324.88;5069652;28;20032;-64
2022/09/08 03:08:28;;;;;;;7.80;3.75;;;;;;;18.62;92.40;100324.19;5053120;28;20032;-65
2022/09/08 03:10:54;;;;;;;8.45;3.60;;;;;;;18.63;92.71;100317.53;5070228;28;20037;-64
2022/09/08 03:13:19;;;;;;;7.30;3.67;;;;;;;18.75;92.68;100316.91;5062727;28;20073;-64
2022/09/08 03:15:45;;;;;;;5.38;3.42;;;;;;;18.76;92.55;100321.16;5095156;23;20044;-65
2022/09/08 03:18:10;;;;;;;6.07;3.80;;;;;;;18.75;92.05;100325.88;5071693;28;20052;-65
2022/09/08 03:20:37;;;;;;;7.45;3.60;;;;;;;18.76;92.08;100323.91;5052682;28;20036;-66
2022/09/08 03:23:04;;;;;;;4.90;3.10;;;;;;;18.79;92.31;100323.81;5070421;28;20416;-65
2022/09/08 03:25:30;;;;;;;5.68;3.42;;;;;;;18.78;92.18;100325.03;5066828;28;20743;-65
2022/09/08 03:27:56;;;;;;;4.13;3.00;;;;;;;18.82;91.69;100327.69;5067698;28;20441;-65
2022/09/08 03:30:22;;;;;;;8.50;4.00;;;;;;;18.91;91.72;100327.94;5066422;28;20071;-65
2022/09/08 03:32:48;;;;;;;8.55;3.75;;;;;;;18.95;91.06;100320.41;5062191;28;20037;-65
2022/09/08 03:35:16;;;;;;;6.28;3.75;;;;;;;18.90;91.35;100318.97;5070249;28;20044;-65
2022/09/08 03:37:42;;;;;;;7.95;3.50;;;;;;;18.86;91.10;100328.41;5067129;28;20028;-65
2022/09/08 03:40:11;;;;;;;5.25;3.50;;;;;;;18.75;91.00;100327.81;5071291;28;20036;-65
2022/09/08 03:42:38;;;;;;;9.23;3.85;;;;;;;18.72;91.44;100323.19;5057504;28;20036;-65
2022/09/08 03:45:09;;;;;;;6.38;3.33;;;;;;;18.67;91.73;100308.09;5051617;28;20114;-65
2022/09/08 03:47:35;;;;;;;4.53;3.20;;;;;;;18.65;92.03;100305.00;5070742;28;20366;-65
2022/09/08 03:50:00;;;;;;;5.45;3.17;;;;;;;18.60;92.43;100300.03;5071142;28;20044;-65
2022/09/08 03:52:26;;;;;;;5.68;3.10;;;;;;;18.62;92.41;100303.09;5047394;28;20044;-65
2022/09/08 03:54:52;;;;;;;6.00;3.88;;;;;;;18.65;92.44;100298.78;5060343;28;20083;-65
2022/09/08 03:57:24;;;;;;;5.18;3.53;;;;;;;18.64;92.19;100291.78;5075635;28;20032;-65
2022/09/08 03:59:51;;;;;;;8.48;3.38;;;;;;;18.60;92.28;100294.56;5053234;28;20036;-65
2022/09/08 04:02:18;;;;;;;7.75;3.72;;;;;;;18.66;91.59;100298.34;5051557;28;20024;-65
2022/09/08 04:04:47;;;;;;;5.25;3.17;;;;;;;18.75;91.09;100284.94;5055618;28;20040;-66
2022/09/08 04:07:12;;;;;;;4.68;3.20;;;;;;;18.77;91.05;100289.97;5077716;28;20060;-66
2022/09/08 04:09:38;;;;;;;5.05;3.08;;;;;;;18.81;90.77;100282.50;5035173;28;20517;-66
2022/09/08 04:12:04;;;;;;;5.25;3.03;;;;;;;18.81;90.71;100279.78;5070321;28;20028;-67
2022/09/08 04:14:30;;;;;;;5.07;3.17;;;;;;;18.84;90.64;100284.38;5069892;28;20079;-66
2022/09/08 04:16:56;;;;;;;5.43;3.15;;;;;;;18.74;91.07;100288.06;5070258;28;20056;-66
2022/09/08 04:19:22;;;;;;;6.30;3.30;;;;;;;18.79;90.53;100284.88;5067452;28;20115;-66
2022/09/08 04:21:48;;;;;;;3.95;2.92;;;;;;;18.84;90.25;100287.88;5069716;28;20111;-66
2022/09/08 04:24:13;;;;;;;6.05;3.03;;;;;;;18.80;90.03;100297.31;5035232;28;20032;-66
2022/09/08 04:26:39;;;;;;;7.03;4.00;;;;;;;18.75;90.26;100295.09;5055924;28;20028;-66
2022/09/08 04:29:05;;;;;;;5.60;3.30;;;;;;;18.63;90.61;100282.84;5077456;28;20527;-66
2022/09/08 04:31:30;;;;;;;4.90;3.28;;;;;;;18.51;91.26;100275.25;5069858;28;20119;-66
2022/09/08 04:33:56;;;;;;;5.30;3.22;;;;;;;18.54;91.14;100273.66;5065263;28;20108;-66
2022/09/08 04:36:22;;;;;;;4.72;2.97;;;;;;;18.58;91.47;100277.84;5081199;28;20031;-66
2022/09/08 04:38:48;;;;;;;4.38;2.88;;;;;;;18.65;91.11;100266.03;5069947;28;20028;-66
2022/09/08 04:41:16;;;;;;;8.15;3.13;;;;;;;18.67;90.29;100261.72;5026447;28;20095;-66
2022/09/08 04:43:43;;;;;;;4.38;3.10;;;;;;;18.68;90.40;100263.25;5042782;28;20020;-66
2022/09/08 04:46:14;;;;;;;5.00;3.05;;;;;;;18.75;89.75;100262.34;5066071;28;20032;-66
2022/09/08 04:48:42;;;;;;;4.20;2.67;;;;;;;18.72;89.45;100268.63;5040922;28;20071;-66
2022/09/08 04:51:09;;;;;;;6.38;3.05;;;;;;;18.64;89.93;100273.44;5075518;28;20040;-66
2022/09/08 04:53:36;;;;;;;5.32;3.30;;;;;;;18.64;89.96;100267.25;5060408;28;20089;-67
2022/09/08 04:56:03;;;;;;;6.88;2.85;;;;;;;18.53;90.10;100264.69;5051614;28;20487;-66
2022/09/08 04:58:31;;;;;;;7.35;3.78;;;;;;;18.53;90.16;100261.19;5060478;28;20077;-67
2022/09/08 05:01:12;;;;;;;6.28;3.33;;;;;;;18.58;90.15;100258.75;5037536;28;20035;-66
2022/09/08 05:03:38;;;;;;;6.18;2.95;;;;;;;18.61;89.75;100257.94;5044590;28;20484;-66
2022/09/08 05:06:05;;;;;;;5.90;2.63;;;;;;;18.68;89.23;100251.53;5071031;28;20120;-66
2022/09/08 05:08:31;;;;;;;8.68;3.05;;;;;;;18.69;88.95;100253.88;5069761;28;20504;-66
2022/09/08 05:10:58;;;;;;;8.57;3.13;;;;;;;18.70;88.98;100247.22;5057601;28;20488;-66
2022/09/08 05:13:24;;;;;;;6.30;3.10;;;;;;;18.70;88.54;100243.72;5063061;28;20093;-66
2022/09/08 05:15:52;;;;;;;6.07;3.50;;;;;;;18.72;88.61;100246.78;5044824;28;20040;-67
2022/09/08 05:18:17;;;;;;;5.15;3.22;;;;;;;18.73;87.71;100243.66;5068465;28;20036;-67
2022/09/08 05:20:43;;;;;;;7.18;3.35;;;;;;;18.29;89.94;100244.06;5057085;28;20575;-67
2022/09/08 05:23:09;;;;;;;7.43;3.70;;;;;;;18.44;89.80;100231.75;5068855;28;20028;-67
2022/09/08 05:25:34;;;;;;;4.85;3.08;;;;;;;18.59;89.14;100234.97;5068651;28;20056;-66
2022/09/08 05:28:00;;;;;;;4.88;3.10;;;;;;;18.59;88.98;100224.84;5070673;28;20051;-67
2022/09/08 05:30:26;;;;;;;5.45;3.28;;;;;;;18.58;89.27;100226.00;5071542;28;20392;-66
2022/09/08 05:32:51;;;;;;;9.65;3.17;;;;;;;18.58;89.06;100225.25;5040003;28;20041;-67
2022/09/08 05:35:17;;;;;;;5.82;3.25;;;;;;;18.60;89.25;100214.69;5062396;28;20051;-67
2022/09/08 05:37:42;;;;;;;5.07;2.53;;;;;;;18.69;88.19;100209.44;5046546;28;20025;-67
2022/09/08 05:40:08;;;;;;;5.50;2.78;;;;;;;18.72;88.09;100200.41;5057741;28;20090;-66
2022/09/08 05:42:33;;;;;;;5.05;2.75;;;;;;;18.76;88.37;100212.81;5036161;28;20373;-67
2022/09/08 05:44:59;;;;;;;5.57;3.13;;;;;;;18.79;87.97;100217.41;5059567;28;20149;-67
2022/09/08 05:47:24;;;;;;;5.05;2.60;;;;;;;18.71;87.73;100217.97;5066706;28;20033;-66
2022/09/08 05:49:50;;;;;;;5.82;2.83;;;;;;;18.72;87.39;100223.00;5057120;28;20029;-67
2022/09/08 05:52:15;;;;;;;6.32;2.67;;;;;;;18.77;87.15;100219.03;5052793;28;20045;-66
2022/09/08 05:54:41;;;;;;;3.25;2.58;;;;;;;18.72;87.44;100219.50;5046416;28;20111;-66
2022/09/08 05:57:06;;;;;;;4.15;2.83;;;;;;;18.82;87.30;100211.13;5057372;28;20064;-66
2022/09/08 05:59:31;;;;;;;4.43;2.67;;;;;;;18.82;86.77;100213.06;5054781;28;20045;-66
2022/09/08 06:01:57;;;;;;;3.53;2.40;;;;;;;18.80;86.36;100207.25;5058112;28;20017;-66
2022/09/08 06:04:23;;;;;;;5.03;2.50;;;;;;;18.74;86.42;100214.41;5046695;28;20059;-66
2022/09/08 06:06:49;;;;;;;6.10;2.67;;;;;;;18.71;86.14;100213.31;5060740;28;20111;-66
2022/09/08 06:09:14;;;;;;;5.45;2.30;;;;;;;18.74;85.86;100214.41;5035923;28;20037;-66
2022/09/08 06:11:41;;;;;;;3.65;2.53;;;;;;;18.83;85.71;100220.09;5055854;28;20040;-66
2022/09/08 06:14:06;;;;;;;4.25;2.30;;;;;;;18.92;85.61;100223.00;5062201;28;20035;-66
2022/09/08 06:16:32;;;;;;;4.00;2.50;;;;;;;18.97;84.98;100230.69;5059352;28;20033;-67
2022/09/08 06:19:00;;;;;;;4.63;2.20;;;;;;;19.05;84.70;100223.91;5057831;28;20095;-66
2022/09/08 06:21:29;;;;;;;9.38;2.20;;;;;;;18.96;84.27;100231.13;5069752;28;20036;-66
2022/09/08 06:23:57;;;;;;;4.28;2.13;;;;;;;19.01;84.51;100228.66;5062784;28;20477;-67
2022/09/08 06:26:41;;;;;;;3.53;2.22;;;;;;;19.14;84.78;100240.50;5051572;28;20105;-66
2022/09/08 06:29:06;;;;;;;4.05;2.70;;;;;;;19.24;84.48;100242.19;5057630;28;20035;-66
2022/09/08 06:31:37;;;;;;;3.55;2.60;;;;;;;19.34;83.72;100241.22;5057622;28;20037;-66
2022/09/08 06:34:15;;;;;;;6.47;2.50;;;;;;;19.36;82.70;100230.66;5038378;28;20033;-67
2022/09/08 06:37:05;;;;;;;2.47;2.20;;;;;;;19.40;82.81;100236.03;5058513;28;20064;-66
2022/09/08 06:39:54;;;;;;;4.13;2.03;;;;;;;19.35;82.69;100228.34;5067440;28;20032;-66
2022/09/08 06:42:35;;;;;;;3.80;2.13;;;;;;;19.31;81.83;100224.91;5057683;28;20065;-66
2022/09/08 06:45:04;;;;;;;3.27;1.93;;;;;;;19.35;81.13;100237.31;5047456;28;20025;-66
2022/09/08 06:47:39;;;;;;;4.47;1.80;;;;;;;19.37;81.59;100237.66;5054618;28;20298;-66
2022/09/08 06:50:09;;;;;;;4.05;1.95;;;;;;;19.44;81.54;100229.31;5059915;28;20028;-66
2022/09/08 06:52:51;;;;;;;2.05;1.50;;;;;;;19.39;80.26;100226.31;5056700;28;20512;-66
2022/09/08 06:55:26;;;;;;;5.30;1.90;;;;;;;19.42;80.39;100217.25;5041177;28;20430;-66
2022/09/08 06:58:03;;;;;;;3.38;1.55;;;;;;;19.27;80.34;100216.78;5059676;28;20374;-67
2022/09/08 07:01:05;;;;;;;2.50;1.80;;;;;;;19.12;80.88;100226.50;5057726;28;20041;-67
2022/09/08 07:03:54;;;;;;;2.83;1.90;;;;;;;19.19;80.92;100228.28;5042959;28;20048;-67
2022/09/08 07:06:24;;;;;;;5.20;2.03;;;;;;;19.24;80.75;100216.88;5066037;28;20412;-67
2022/09/08 07:09:16;;;;;;;2.75;1.67;;;;;;;19.16;81.16;100212.75;5046823;28;20047;-66
2022/09/08 07:12:01;;;;;;;2.20;1.70;;;;;;;19.27;81.07;100213.28;5053006;28;20426;-66
2022/09/08 07:14:45;;;;;;;3.40;1.83;;;;;;;19.24;80.20;100223.09;5054471;28;20064;-66
2022/09/08 07:17:47;;;;;;;4.50;1.75;;;;;;;19.25;80.13;100221.91;5044894;28;20029;-66
2022/09/08 07:20:12;;;;;;;2.85;1.60;;;;;;;19.15;80.30;100214.72;5061729;28;20041;-67
2022/09/08 07:22:38;;;;;;;2.67;1.83;;;;;;;19.23;79.88;100210.63;5062266;28;20037;-66
2022/09/08 07:25:40;;;;;;;5.10;1.65;;;;;;;19.24;79.85;100214.88;5060676;28;20037;-66
2022/09/08 07:28:25;;;;;;;3.22;1.85;;;;;;;19.30;79.73;100205.00;5022123;28;20623;-66
2022/09/08 07:31:04;;;;;;;1.92;1.60;;;;;;;19.12;79.37;100207.38;5051812;28;20118;-66
2022/09/08 07:33:36;;;;;;;2.10;1.83;;;;;;;19.20;79.56;100205.25;5058347;28;20566;-67
2022/09/08 07:36:20;;;;;;;3.30;1.77;;;;;;;19.23;79.56;100209.84;5052924;28;20067;-66
2022/09/08 07:38:51;;;;;;;3.47;1.83;;;;;;;19.24;79.50;100206.69;5066441;28;20098;-67
2022/09/08 07:41:21;;;;;;;1.95;1.60;;;;;;;19.31;79.20;100206.56;5064845;28;20029;-66
2022/09/08 07:43:57;;;;;;;2.28;1.73;;;;;;;19.21;78.34;100196.63;5057662;28;20256;-66
2022/09/08 07:46:43;;;;;;;2.53;1.30;;;;;;;19.15;78.83;100194.81;5061640;28;20028;-66
2022/09/08 07:49:46;;;;;;;2.95;1.77;;;;;;;19.19;77.57;100187.31;5058338;28;20072;-66
2022/09/08 07:52:35;;;;;;;1.52;1.35;;;;;;;19.07;78.65;100180.56;5046927;28;20431;-66
2022/09/08 07:55:14;;;;;;;2.42;1.55;;;;;;;19.09;78.67;100180.13;5028774;28;20372;-66
2022/09/08 07:58:05;;;;;;;2.83;1.45;;;;;;;19.09;78.64;100180.91;5054714;28;20068;-66
2022/09/08 08:00:49;;;;;;;2.92;1.50;;;;;;;19.13;78.08;100178.88;5065410;28;20190;-65
2022/09/08 08:03:17;;;;;;;2.67;1.58;;;;;;;19.23;77.80;100177.09;5067129;28;20028;-66
2022/09/08 08:05:47;;;;;;;2.40;1.70;;;;;;;19.19;77.99;100177.19;5054021;28;20039;-66
2022/09/08 08:08:39;;;;;;;2.45;1.55;;;;;;;19.15;77.62;100162.84;5067815;28;20039;-66
2022/09/08 08:11:13;;;;;;;2.65;1.63;;;;;;;19.19;77.43;100168.97;5025847;28;20581;-67
2022/09/08 08:14:01;;;;;;;2.80;1.30;;;;;;;19.17;77.40;100174.09;5075938;28;20499;-67
2022/09/08 08:16:53;;;;;;;5.15;1.98;;;;;;;19.31;76.71;100175.75;5067544;28;20044;-67
2022/09/08 08:19:19;;;;;;;1.45;1.35;;;;;;;19.28;76.60;100171.88;5048148;28;20114;-67
2022/09/08 08:22:06;;;;;;;2.03;1.40;;;;;;;19.35;76.56;100181.91;5066188;28;20025;-67
2022/09/08 08:24:48;;;;;;;2.10;1.40;;;;;;;19.19;75.75;100173.66;5069890;28;20396;-67
2022/09/08 08:27:27;;;;;;;5.03;1.42;;;;;;;19.27;76.23;100175.06;5035439;28;20499;-67
2022/09/08 08:30:09;;;;;;;4.03;1.80;;;;;;;19.29;76.08;100173.44;5052758;28;20401;-67
2022/09/08 08:32:42;;;;;;;1.98;1.10;;;;;;;19.29;75.55;100173.44;5056246;28;20028;-68
2022/09/08 08:35:27;;;;;;;1.90;1.30;;;;;;;19.45;75.43;100168.00;5060726;28;20431;-67
2022/09/08 08:37:54;;;;;;;1.73;1.40;;;;;;;19.52;74.78;100165.13;5051775;28;20036;-67
2022/09/08 08:41:01;;;;;;;6.10;1.50;;;;;;;19.62;74.68;100202.34;5061245;28;20444;-67
2022/09/08 08:44:10;;;;;;;2.40;1.20;;;;;;;19.61;73.51;100217.19;5032515;28;20065;-66
2022/09/08 08:46:48;;;;;;;1.92;1.33;;;;;;;19.62;73.94;100188.69;5047792;28;20106;-66
2022/09/08 08:49:19;;;;;;;2.58;1.20;;;;;;;19.71;73.42;100179.88;5038609;28;20064;-66
2022/09/08 08:52:10;;;;;;;2.28;1.42;;;;;;;19.66;72.75;100194.84;5055719;28;20079;-66
2022/09/08 08:55:12;;;;;;;2.43;1.60;;;;;;;19.66;72.49;100188.59;5045883;28;20384;-66
2022/09/08 08:57:57;;;;;;;1.80;1.20;;;;;;;19.62;72.38;100191.41;5058085;28;20359;-66
2022/09/08 09:00:34;;;;;;;7.18;1.25;;;;;;;19.71;71.98;100185.34;5066200;28;20037;-66
2022/09/08 09:03:15;;;;;;;2.92;1.92;;;;;;;19.77;72.22;100191.81;5065811;28;20053;-66
2022/09/08 09:05:46;;;;;;;2.53;1.40;;;;;;;19.83;71.45;100184.66;5047008;28;20041;-67
2022/09/08 09:08:30;;;;;;;;;;;;;;;19.84;71.52;100188.16;5062980;28;20105;-66
2022/09/08 09:11:14;;;;;;;2.25;1.10;;;;;;;19.87;71.38;100199.00;5053046;28;19912;-67
2022/09/08 09:14:01;;;;;;;1.85;1.35;;;;;;;19.89;70.81;100199.34;5055329;28;20504;-66
2022/09/08 09:16:32;;;;;;;2.45;1.52;;;;;;;19.95;70.79;100196.84;5077664;23;20052;-65
2022/09/08 09:19:45;;;;;;;1.50;1.17;;;;;;;19.99;69.79;100194.81;5054700;28;20037;-65
2022/09/08 09:22:26;;;;;;;1.60;1.33;;;;;;;19.79;70.04;100184.75;5028932;28;20460;-63
2022/09/08 09:25:00;;;;;;;1.75;1.20;;;;;;;19.92;69.67;100189.53;5069420;28;20526;-63
2022/09/08 09:27:35;;;;;;;1.58;1.08;;;;;;;19.99;69.07;100175.66;5043756;28;20060;-62
2022/09/08 09:30:19;;;;;;;1.83;1.35;;;;;;;20.03;68.90;100166.19;5037930;28;20033;-63
2022/09/08 09:33:22;;;;;;;1.95;1.30;;;;;;;20.12;68.89;100160.84;5042932;28;20053;-63
2022/09/08 09:36:06;;;;;;;1.52;1.20;;;;;;;20.07;68.38;100163.34;5035941;28;20040;-63
2022/09/08 09:38:44;;;;;;;1.50;1.25;;;;;;;20.16;68.12;100161.53;5036554;28;20045;-63
2022/09/08 09:41:28;;;;;;;3.72;1.50;;;;;;;20.27;68.17;100155.78;5038486;28;20091;-63
2022/09/08 09:44:06;;;;;;;3.60;1.85;;;;;;;20.35;67.78;100143.44;5039745;28;20377;-63
2022/09/08 09:46:59;;;;;;;2.50;1.67;;;;;;;20.33;67.05;100141.16;5039715;28;20038;-62
2022/09/08 09:50:00;;;;;;;1.92;1.00;;;;;;;20.43;66.40;100114.69;5031920;28;20718;-63
2022/09/08 09:52:50;;;;;;;2.55;1.40;;;;;;;20.48;66.10;100123.13;5045575;28;20039;-62
2022/09/08 09:55:23;;;;;;;3.22;1.60;;;;;;;20.61;66.00;100120.44;5002607;28;20140;-63
2022/09/08 09:58:30;;;;;;;2.05;1.30;;;;;;;20.58;66.03;100113.06;5039672;28;20036;-63
2022/09/08 10:01:19;;;;;;;2.42;1.38;;;;;;;20.56;65.37;100120.94;5023647;28;20040;-62
2022/09/08 10:03:45;;;;;;;2.22;1.40;;;;;;;20.55;65.37;100100.28;5038534;28;20557;-62
2022/09/08 10:06:24;;;;;;;3.92;1.60;;;;;;;20.48;65.38;100108.66;5038340;28;20168;-62
2022/09/08 10:08:59;;;;;;;2.85;1.42;;;;;;;20.42;66.30;100113.16;5040721;28;20047;-62
2022/09/08 10:12:02;;;;;;;2.45;1.20;;;;;;;20.36;66.04;100101.97;5036377;28;20478;-63
2022/09/08 10:14:28;;;;;;;2.85;1.38;;;;;;;20.39;67.22;100101.13;5017726;28;20026;-62
2022/09/08 10:16:53;;;;;;;2.53;1.48;;;;;;;20.40;67.13;100101.91;5038102;28;20060;-63
2022/09/08 10:19:18;;;;;;;2.05;1.40;;;;;;;;;;5021825;28;20086;-63
2022/09/08 10:22:11;;;;;;;2.47;1.50;;;;;;;20.42;65.40;100113.16;5037197;28;20044;-62
2022/09/08 10:25:24;;;;;;;5.05;1.77;;;;;;;20.42;65.77;100115.91;5022598;28;20407;-62
2022/09/08 10:28:08;;;;;;;3.00;1.67;;;;;;;20.31;66.64;100129.88;4986810;28;20121;-63
2022/09/08 10:30:58;;;;;;;2.38;1.20;;;;;;;20.38;66.39;100126.19;5029896;28;20110;-63
2022/09/08 10:33:32;;;;;;;1.58;1.20;;;;;;;20.38;66.83;100118.72;5035979;28;20098;-63
2022/09/08 10:36:06;;;;;;;2.88;1.58;;;;;;;20.34;66.72;100123.53;5033090;28;20474;-62
2022/09/08 10:38:55;;;;;;;4.45;1.52;;;;;;;20.31;68.64;100118.94;5038597;28;20041;-65
2022/09/08 10:41:58;;;;;;;1.63;1.38;;;;;;;20.32;68.74;100117.75;5044266;28;20033;-64
2022/09/08 10:44:45;;;;;;;3.72;1.80;;;;;;;20.31;69.87;100101.75;5042543;28;20037;-64
2022/09/08 10:47:41;;;;;;;2.85;1.52;;;;;;;20.29;70.72;100104.16;5047732;28;20041;-64
2022/09/08 10:50:23;;;;;;;3.28;1.88;;;;;;;20.25;71.27;100098.78;5034987;28;20069;-65
2022/09/08 10:53:01;;;;;;;3.67;1.80;;;;;;;20.20;72.53;100106.75;5031956;28;20157;-65
2022/09/08 10:55:39;;;;;;;3.75;1.48;;;;;;;19.82;80.06;100117.53;5034801;28;20045;-64
2022/09/08 10:58:21;;;;;;;3.35;1.95;;;;;;;19.72;82.06;100116.56;5042399;28;20481;-64
2022/09/08 11:01:19;;;;;;;3.42;2.00;;;;;;;19.74;82.53;100121.63;5030741;28;20056;-64
2022/09/08 11:04:22;;;;;;;3.60;2.08;;;;;;;19.67;84.17;100130.78;5042407;28;20037;-63
2022/09/08 11:06:53;;;;;;;3.08;2.08;;;;;;;19.59;85.74;100140.34;5032680;28;20388;-64
2022/09/08 11:09:29;;;;;;;2.17;1.75;;;;;;;19.41;87.82;100150.94;5038933;28;20086;-63
2022/09/08 11:12:23;;;;;;;3.22;2.03;;;;;;;19.36;87.72;100154.19;5035458;28;20032;-64
2022/09/08 11:15:07;;;;;;;4.97;2.10;;;;;;;19.31;87.20;100162.88;5039693;28;20037;-64
2022/09/08 11:17:47;;;;;;;3.25;1.63;;;;;;;19.21;87.45;100163.88;5042956;28;20095;-64
2022/09/08 11:20:21;;;;;;;4.63;2.03;;;;;;;19.26;88.11;100165.34;5037563;28;20037;-64
2022/09/08 11:23:00;;;;;;;4.60;2.40;;;;;;;19.29;89.25;100165.25;5036099;28;20037;-64
2022/09/08 11:25:32;;;;;;;4.30;2.33;;;;;;;19.28;90.36;100166.44;5039958;28;20421;-64
2022/09/08 11:28:04;;;;;;;4.90;2.13;;;;;;;19.25;90.07;100161.81;5020766;28;20487;-63
2022/09/08 11:30:36;;;;;;;7.25;1.85;;;;;;;19.12;90.99;100150.03;5049861;28;20033;-63
2022/09/08 11:33:09;;;;;;;3.25;2.10;;;;;;;19.09;90.18;100147.38;5027223;28;20028;-64
2022/09/08 11:35:42;;;;;;;3.80;2.20;;;;;;;19.09;90.61;100145.41;5031868;28;20037;-64
2022/09/08 11:38:11;;;;;;;4.75;2.00;;;;;;;19.13;90.53;100140.66;5027769;28;20036;-64
2022/09/08 11:41:14;;;;;;;5.55;2.75;;;;;;;19.13;91.32;100132.47;5051160;28;20033;-64
2022/09/08 11:44:17;;;;;;;3.67;2.35;;;;;;;19.26;90.96;100133.31;5005926;28;20525;-64
2022/09/08 11:46:56;;;;;;;3.47;2.10;;;;;;;19.28;90.66;100130.94;5051378;28;20064;-64
2022/09/08 11:49:30;;;;;;;2.90;1.95;;;;;;;19.24;90.17;100124.78;5047239;28;20061;-63
2022/09/08 11:52:08;;;;;;;4.57;2.25;;;;;;;19.24;90.25;100124.03;5032987;28;20644;-64
2022/09/08 11:54:55;;;;;;;5.22;2.08;;;;;;;19.24;91.15;100124.03;5031794;28;20046;-65
2022/09/08 11:57:44;;;;;;;4.47;2.08;;;;;;;19.18;92.33;100118.28;5045743;28;20025;-66
2022/09/08 12:00:37;;;;;;;5.30;2.20;;;;;;;19.29;91.91;100132.47;5008148;28;20052;-63
2022/09/08 12:03:48;;;;;;;4.18;2.15;;;;;;;19.22;91.69;100135.34;5041384;28;20044;-64
2022/09/08 12:06:34;;;;;;;3.72;2.15;;;;;;;19.27;91.16;100128.63;5020710;28;20724;-63